Time;durP1;ratioP1;P1;durP2;ratioP2;P2;SDS_P1;SDS_P2;PMS_P1;PMS_P2;Temp;Humidity;BMP_temperature;BMP_pressure;BME280_temperature;BME280_humidity;BME280_pressure;Samples;Min_cycle;Max_cycle;Signal;HPM_P1;HPM_P2
2024/01/26 00:01:09;;;;;;;27.60;14.80;;;;;;;13.64;67.06;102280.34;4861940;28;118621;-85
2024/01/26 00:03:38;;;;;;;24.00;14.45;;;;;;;13.65;67.06;102271.44;4839689;28;122474;-85
2024/01/26 00:06:05;;;;;;;25.23;15.43;;;;;;;13.66;67.07;102267.84;4867976;28;124933;-84
2024/01/26 00:08:33;;;;;;;26.20;14.98;;;;;;;13.65;66.97;102274.09;4863247;28;117913;-84
2024/01/26 00:11:00;;;;;;;26.00;15.63;;;;;;;13.67;66.92;102274.03;4852613;28;118642;-84
2024/01/26 00:13:27;;;;;;;21.40;14.93;;;;;;;13.67;66.85;102279.38;4852027;28;124082;-83
2024/01/26 00:15:54;;;;;;;26.00;15.75;;;;;;;13.66;67.02;102273.19;4852622;28;123535;-85
2024/01/26 00:18:24;;;;;;;26.67;16.23;;;;;;;13.65;66.80;102271.44;4846380;28;118492;-84
2024/01/26 00:20:52;;;;;;;25.00;16.08;;;;;;;13.65;67.09;102263.44;4847131;28;119326;-84
2024/01/26 00:23:19;;;;;;;24.73;15.23;;;;;;;13.65;67.24;102260.78;4853088;28;123982;-83
2024/01/26 00:25:46;;;;;;;26.17;15.15;;;;;;;13.67;67.10;102266.91;4849095;28;123131;-84
2024/01/26 00:28:14;;;;;;;26.45;15.10;;;;;;;13.66;66.95;102262.53;4854645;28;119119;-84
2024/01/26 00:30:41;;;;;;;23.63;15.43;;;;;;;13.67;67.04;102266.91;4854776;28;118205;-85
2024/01/26 00:33:10;;;;;;;23.83;15.13;;;;;;;13.68;67.14;102263.34;4855759;28;97148;-85
2024/01/26 00:35:37;;;;;;;25.15;15.15;;;;;;;13.67;67.14;102258.94;4851876;28;123283;-84
2024/01/26 00:38:05;;;;;;;23.80;14.82;;;;;;;13.69;67.06;102257.06;4854142;28;119596;-85
2024/01/26 00:40:32;;;;;;;21.88;14.25;;;;;;;13.69;67.04;102257.06;4852244;28;119529;-84
2024/01/26 00:42:59;;;;;;;25.92;14.98;;;;;;;13.69;67.08;102270.38;4850166;28;123606;-84
2024/01/26 00:45:26;;;;;;;22.40;14.05;;;;;;;13.69;67.19;102262.41;4836371;28;122758;-83
2024/01/26 00:47:54;;;;;;;20.33;13.68;;;;;;;13.69;67.12;102257.06;4852371;28;118198;-85
2024/01/26 00:50:21;;;;;;;21.02;13.88;;;;;;;13.69;67.15;102257.06;4854891;28;118142;-84
2024/01/26 00:52:49;;;;;;;19.90;13.80;;;;;;;13.69;67.13;102262.41;4852331;28;123434;-84
2024/01/26 00:55:16;;;;;;;20.88;13.07;;;;;;;13.69;67.06;102257.06;4851938;28;122184;-84
2024/01/26 00:57:43;;;;;;;23.20;13.90;;;;;;;13.70;67.20;102253.50;4851932;28;118039;-84
2024/01/26 01:00:12;;;;;;;20.85;13.20;;;;;;;13.70;67.14;102253.50;4852805;28;118852;-84
2024/01/26 01:02:39;;;;;;;16.80;12.00;;;;;;;13.70;67.04;102258.84;4860127;28;125155;-85
2024/01/26 01:05:07;;;;;;;19.60;12.82;;;;;;;13.72;67.17;102251.66;4850164;28;122730;-85
2024/01/26 01:07:34;;;;;;;18.75;12.32;;;;;;;13.71;67.27;102249.94;4870875;28;120070;-84
2024/01/26 01:10:01;;;;;;;17.00;11.98;;;;;;;13.71;67.36;102249.03;4865093;28;117112;-84
2024/01/26 01:12:28;;;;;;;20.00;12.85;;;;;;;13.73;67.16;102248.09;4851510;28;124513;-85
2024/01/26 01:14:57;;;;;;;17.52;12.15;;;;;;;13.73;67.12;102234.78;4868194;28;124768;-84
2024/01/26 01:17:25;;;;;;;19.95;12.75;;;;;;;13.72;67.25;102249.00;4853513;28;119776;-85
2024/01/26 01:19:52;;;;;;;18.25;12.57;;;;;;;13.71;67.10;102241.94;4851683;28;119314;-85
2024/01/26 01:22:19;;;;;;;17.20;12.35;;;;;;;13.71;67.03;102239.28;4866117;28;124185;-85
2024/01/26 01:24:46;;;;;;;19.90;12.63;;;;;;;13.72;67.20;102241.00;4868431;28;122824;-84
2024/01/26 01:27:13;;;;;;;18.45;12.55;;;;;;;13.72;67.18;102250.78;4861976;28;119088;-83
2024/01/26 01:29:41;;;;;;;20.15;12.52;;;;;;;13.73;67.08;102248.09;4872425;28;121931;-83
2024/01/26 01:32:08;;;;;;;16.88;11.68;;;;;;;13.72;67.26;102246.31;4841542;28;123416;-84
2024/01/26 01:34:36;;;;;;;19.23;12.05;;;;;;;13.72;67.39;102241.00;4852770;28;125102;-85
2024/01/26 01:37:03;;;;;;;18.42;12.27;;;;;;;13.71;67.40;102244.59;4855366;28;121157;-85
2024/01/26 01:39:31;;;;;;;19.25;11.80;;;;;;;13.73;67.20;102232.09;4837426;28;118113;-83
2024/01/26 01:41:58;;;;;;;16.80;11.60;;;;;;;13.73;67.16;102232.09;4856070;28;123381;-84
2024/01/26 01:44:25;;;;;;;15.77;10.80;;;;;;;13.74;67.15;102228.50;4856579;28;124613;-84
2024/01/26 01:46:52;;;;;;;19.63;11.32;;;;;;;13.74;67.30;102228.50;4857958;28;119338;-84
2024/01/26 01:49:20;;;;;;;18.40;11.60;;;;;;;13.75;67.43;102224.94;4853075;28;118403;-85
2024/01/26 01:51:51;;;;;;;15.23;10.38;;;;;;;13.75;67.29;102222.25;4861294;28;122145;-84
2024/01/26 01:54:19;;;;;;;13.85;9.45;;;;;;;13.75;67.21;102214.28;4848953;28;123578;-85
2024/01/26 01:56:47;;;;;;;15.65;9.77;;;;;;;13.75;67.08;102203.63;4851764;28;118706;-84
2024/01/26 01:59:15;;;;;;;12.57;8.90;;;;;;;13.76;67.29;102202.69;4852576;28;117429;-84
2024/01/26 02:01:42;;;;;;;12.73;9.23;;;;;;;13.75;67.29;102198.31;4870190;28;123518;-84
2024/01/26 02:04:10;;;;;;;13.98;9.43;;;;;;;13.78;67.13;102199.97;4858712;28;122750;-85
2024/01/26 02:06:37;;;;;;;12.98;9.10;;;;;;;13.78;67.35;102192.84;4843842;28;118355;-84
2024/01/26 02:09:05;;;;;;;11.73;8.15;;;;;;;13.79;67.24;102194.59;4859926;28;117835;-86
2024/01/26 02:11:33;;;;;;;12.27;7.90;;;;;;;13.79;67.39;102197.25;4862702;28;122009;-86
2024/01/26 02:14:00;;;;;;;11.52;7.85;;;;;;;13.79;67.26;102191.94;4862186;28;122567;-85
2024/01/26 02:16:27;;;;;;;11.20;7.57;;;;;;;13.81;67.17;102191.88;4848996;28;119791;-86
2024/01/26 02:18:54;;;;;;;10.90;7.45;;;;;;;13.81;67.05;102186.56;4848505;28;119140;-86
2024/01/26 02:21:22;;;;;;;10.23;7.15;;;;;;;13.79;67.04;102183.94;4857731;28;124168;-86
2024/01/26 02:23:49;;;;;;;12.48;7.03;;;;;;;13.79;67.08;102181.28;4872359;28;124137;-85
2024/01/26 02:26:16;;;;;;;9.90;6.45;;;;;;;13.79;66.91;102178.63;4874657;28;119705;-86
2024/01/26 02:28:43;;;;;;;10.88;6.63;;;;;;;13.79;67.10;102183.09;4845119;28;119935;-85
2024/01/26 02:31:10;;;;;;;7.57;5.93;;;;;;;13.78;67.03;102176.88;4854895;29;125090;-86
2024/01/26 02:33:37;;;;;;;8.40;5.85;;;;;;;13.78;66.95;102160.88;4870308;28;121964;-85
2024/01/26 02:36:05;;;;;;;9.85;6.10;;;;;;;13.76;66.94;102162.75;4870600;28;118724;-86
2024/01/26 02:38:33;;;;;;;9.77;5.82;;;;;;;13.77;66.96;102153.84;4854325;28;119399;-86
2024/01/26 02:41:00;;;;;;;8.98;5.43;;;;;;;13.77;67.04;102147.66;4852287;28;123512;-86
2024/01/26 02:43:28;;;;;;;7.15;5.75;;;;;;;13.78;66.79;102134.25;4870704;28;123957;-86
2024/01/26 02:45:55;;;;;;;7.82;5.55;;;;;;;13.78;66.92;102138.72;4854818;28;118723;-86
2024/01/26 02:48:23;;;;;;;8.02;5.05;;;;;;;13.78;66.84;102134.25;4855914;28;118514;-86
2024/01/26 02:50:51;;;;;;;7.32;4.63;;;;;;;13.77;66.88;102132.53;4837108;28;123833;-86
2024/01/26 02:53:18;;;;;;;7.22;5.20;;;;;;;13.76;66.93;102117.47;4841292;28;123252;-85
2024/01/26 02:55:45;;;;;;;6.72;4.68;;;;;;;13.77;66.76;102121.88;4854629;28;119463;-86
2024/01/26 02:58:12;;;;;;;10.30;4.97;;;;;;;13.76;66.83;102122.81;4839086;28;117982;-86
2024/01/26 03:00:39;;;;;;;7.75;4.35;;;;;;;13.77;67.06;102113.91;4854132;28;123517;-86
2024/01/26 03:03:07;;;;;;;6.72;4.90;;;;;;;13.78;66.66;102118.28;4849268;29;123651;-86
2024/01/26 03:05:34;;;;;;;7.50;4.50;;;;;;;13.76;66.85;102120.13;4851511;28;119947;-85
2024/01/26 03:08:02;;;;;;;7.05;4.45;;;;;;;13.77;66.88;102121.88;4849362;28;119343;-84
2024/01/26 03:10:29;;;;;;;7.45;4.82;;;;;;;13.78;66.89;102114.75;4852753;28;123347;-84
2024/01/26 03:12:56;;;;;;;5.07;4.00;;;;;;;13.78;66.96;102110.28;4853215;28;121955;-84
2024/01/26 03:15:24;;;;;;;6.35;4.45;;;;;;;13.78;66.75;102091.66;4870233;28;118162;-84
2024/01/26 03:17:51;;;;;;;5.70;4.45;;;;;;;13.78;66.79;102086.31;4850776;28;118498;-84
2024/01/26 03:20:18;;;;;;;8.35;4.72;;;;;;;13.80;66.86;102089.78;4867600;28;122982;-85
2024/01/26 03:22:46;;;;;;;7.22;4.90;;;;;;;13.81;67.04;102080.91;4868592;28;124879;-85
2024/01/26 03:25:13;;;;;;;7.10;4.18;;;;;;;13.80;66.73;102084.47;4871197;28;118910;-85
2024/01/26 03:27:41;;;;;;;5.53;4.45;;;;;;;13.81;66.74;102086.22;4872420;28;119348;-84
2024/01/26 03:30:08;;;;;;;6.13;4.25;;;;;;;13.79;66.77;102080.09;4822037;29;123662;-84
2024/01/26 03:32:36;;;;;;;8.43;4.30;;;;;;;13.79;66.82;102072.09;4841027;29;124124;-85
2024/01/26 03:35:05;;;;;;;6.13;3.95;;;;;;;13.79;66.75;102064.13;4838320;29;117744;-84
2024/01/26 03:37:32;;;;;;;7.35;3.97;;;;;;;13.80;66.74;102055.19;4822636;29;117043;-84
2024/01/26 03:39:59;;;;;;;6.53;4.35;;;;;;;13.81;66.75;102048.94;4838082;29;123906;-84
2024/01/26 03:42:26;;;;;;;6.00;4.35;;;;;;;13.81;66.61;102043.63;4838954;29;123160;-85
2024/01/26 03:44:53;;;;;;;6.60;4.35;;;;;;;13.82;66.62;102040.03;4855132;28;119057;-84
2024/01/26 03:47:21;;;;;;;5.82;4.10;;;;;;;13.81;66.74;102038.28;4835561;29;117298;-83
2024/01/26 03:49:48;;;;;;;7.18;4.47;;;;;;;13.83;66.59;102049.75;4835084;29;122968;-84
2024/01/26 03:52:15;;;;;;;7.20;4.15;;;;;;;13.83;66.54;102047.09;4840364;29;123964;-84
2024/01/26 03:54:43;;;;;;;8.88;3.90;;;;;;;13.85;66.68;102043.50;4823622;29;120406;-84
2024/01/26 03:57:10;;;;;;;5.40;3.97;;;;;;;13.85;66.57;102032.84;4853529;29;118914;-85
2024/01/26 03:59:37;;;;;;;5.60;4.25;;;;;;;13.85;66.53;102032.84;4839045;29;123243;-87
2024/01/26 04:02:05;;;;;;;6.20;4.20;;;;;;;13.85;66.71;102027.53;4842881;29;123291;-84
2024/01/26 04:04:32;;;;;;;6.47;4.38;;;;;;;13.85;66.63;102027.53;4849874;28;117522;-83
2024/01/26 04:06:59;;;;;;;6.00;4.22;;;;;;;13.84;66.29;102021.31;4861648;28;119678;-83
2024/01/26 04:09:26;;;;;;;5.85;4.32;;;;;;;13.86;66.53;102023.91;4864296;28;122200;-83
2024/01/26 04:11:54;;;;;;;5.50;4.13;;;;;;;13.85;66.46;102022.19;4864283;28;122997;-84
2024/01/26 04:14:21;;;;;;;7.45;4.40;;;;;;;13.86;66.71;102023.91;4880218;28;118671;-83
2024/01/26 04:16:48;;;;;;;7.07;4.85;;;;;;;13.83;66.56;102015.13;4862780;28;119860;-83
2024/01/26 04:19:15;;;;;;;7.15;4.70;;;;;;;13.85;66.59;101995.56;4861632;28;123673;-83
2024/01/26 04:21:43;;;;;;;6.07;4.57;;;;;;;13.83;66.61;101996.47;4873031;28;122480;-83
2024/01/26 04:24:11;;;;;;;6.85;4.72;;;;;;;13.83;66.57;101999.16;4878487;28;120290;-83
2024/01/26 04:26:38;;;;;;;9.27;5.00;;;;;;;13.86;66.56;101992.81;4833581;29;117977;-84
2024/01/26 04:29:05;;;;;;;8.25;5.18;;;;;;;13.85;66.25;101988.44;4852360;29;122769;-84
2024/01/26 04:31:33;;;;;;;9.88;4.75;;;;;;;13.88;66.75;101995.44;4854595;29;123636;-84
2024/01/26 04:34:00;;;;;;;9.20;5.18;;;;;;;13.88;66.52;101995.44;4837858;28;119735;-85
2024/01/26 04:36:27;;;;;;;7.35;5.05;;;;;;;13.88;66.74;101979.44;4834983;29;118884;-84
2024/01/26 04:38:55;;;;;;;6.32;5.13;;;;;;;13.87;66.60;101973.25;4849369;28;123442;-83
2024/01/26 04:41:22;;;;;;;7.68;5.00;;;;;;;13.89;66.43;101970.53;4832225;28;122943;-84
2024/01/26 04:43:50;;;;;;;10.65;5.32;;;;;;;13.87;66.60;101967.06;4837347;29;119488;-84
2024/01/26 04:46:17;;;;;;;8.75;5.65;;;;;;;13.89;66.72;101966.06;4837168;28;119383;-84
2024/01/26 04:48:44;;;;;;;10.30;5.65;;;;;;;13.90;66.67;101970.50;4849369;29;123972;-84
2024/01/26 04:51:12;;;;;;;9.10;5.82;;;;;;;13.90;66.68;101972.25;4851847;29;123929;-85
2024/01/26 04:53:40;;;;;;;9.73;5.45;;;;;;;13.91;66.81;101952.69;4837326;29;118853;-83
2024/01/26 04:56:11;;;;;;;7.05;5.00;;;;;;;13.94;66.74;101947.25;4832689;29;117333;-85
2024/01/26 04:58:38;;;;;;;7.93;5.28;;;;;;;13.95;66.66;101927.66;4850095;28;124596;-84
2024/01/26 05:01:06;;;;;;;8.38;5.65;;;;;;;13.96;66.54;101932.94;4831754;29;123509;-84
2024/01/26 05:03:34;;;;;;;6.90;5.40;;;;;;;13.98;66.66;101951.53;4836590;29;118873;-84
2024/01/26 05:06:01;;;;;;;7.35;5.07;;;;;;;13.98;66.45;101948.88;4847764;28;117461;-84
2024/01/26 05:08:29;;;;;;;11.23;5.43;;;;;;;14.00;66.54;101958.50;4847487;28;123755;-84
2024/01/26 05:10:56;;;;;;;7.65;5.40;;;;;;;13.98;66.40;101948.88;4820097;28;124794;-84
2024/01/26 05:13:23;;;;;;;6.63;5.25;;;;;;;14.00;66.41;101942.53;4850976;28;119352;-84
2024/01/26 05:15:51;;;;;;;7.80;5.38;;;;;;;14.01;66.53;101951.38;4833486;28;118196;-84
2024/01/26 05:18:18;;;;;;;8.55;5.60;;;;;;;14.01;66.38;101948.72;4832738;29;122181;-84
2024/01/26 05:20:45;;;;;;;8.63;5.45;;;;;;;14.02;66.36;101939.81;4849433;28;123088;-83
2024/01/26 05:23:13;;;;;;;8.10;5.18;;;;;;;14.01;66.53;101943.38;4837314;29;118798;-84
2024/01/26 05:25:41;;;;;;;8.25;5.30;;;;;;;14.03;66.37;101946.84;4837173;28;117957;-83
2024/01/26 05:28:09;;;;;;;9.70;5.15;;;;;;;14.02;66.32;101945.13;4827040;28;124201;-84
2024/01/26 05:30:36;;;;;;;9.57;6.00;;;;;;;14.01;66.20;101927.41;4871838;28;125762;-84
2024/01/26 05:33:03;;;;;;;8.02;6.07;;;;;;;14.02;66.38;101923.81;4855444;28;118547;-84
2024/01/26 05:35:31;;;;;;;8.52;5.88;;;;;;;14.04;66.34;101916.63;4868237;28;119238;-84
2024/01/26 05:37:58;;;;;;;8.18;5.95;;;;;;;14.03;66.21;101917.53;4855223;28;122774;-84
2024/01/26 05:40:25;;;;;;;9.63;5.57;;;;;;;14.03;66.23;101909.56;4871353;28;122021;-83
2024/01/26 05:42:53;;;;;;;7.65;5.85;;;;;;;14.02;66.14;101914.03;4856054;28;118376;-84
2024/01/26 05:45:20;;;;;;;12.02;5.75;;;;;;;14.02;66.25;101910.50;4854845;28;118520;-84
2024/01/26 05:47:47;;;;;;;10.82;5.90;;;;;;;14.01;66.17;101911.41;4853800;28;123322;-84
2024/01/26 05:50:15;;;;;;;8.65;5.90;;;;;;;14.02;66.09;101897.19;4854149;28;121987;-84
2024/01/26 05:52:43;;;;;;;8.20;6.07;;;;;;;14.03;66.24;101888.25;4855284;28;118380;-84
2024/01/26 05:55:10;;;;;;;7.68;5.95;;;;;;;14.01;66.04;101880.34;4853245;28;118586;-84
2024/01/26 05:57:37;;;;;;;8.52;6.32;;;;;;;14.01;66.25;101879.47;4835743;29;124324;-84
2024/01/26 06:00:06;;;;;;;9.80;6.00;;;;;;;14.00;66.12;101889.25;4848252;28;124112;-83
2024/01/26 06:02:33;;;;;;;8.98;6.78;;;;;;;14.00;66.16;101872.41;4866311;28;119283;-84
2024/01/26 06:05:01;;;;;;;9.70;5.72;;;;;;;13.98;66.14;101867.16;4837887;28;118781;-83
2024/01/26 06:07:28;;;;;;;8.32;6.45;;;;;;;13.98;66.00;101868.97;4846678;28;124415;-84
2024/01/26 06:09:55;;;;;;;8.70;6.05;;;;;;;13.97;66.31;101877.88;4853725;28;123468;-82
2024/01/26 06:12:23;;;;;;;10.10;6.18;;;;;;;13.95;66.17;101877.06;4869167;28;118766;-83
2024/01/26 06:14:50;;;;;;;6.55;5.47;;;;;;;13.95;66.17;101880.59;4870504;28;118070;-84
2024/01/26 06:17:18;;;;;;;7.88;5.95;;;;;;;13.92;66.19;101864.75;4853490;28;123624;-82
2024/01/26 06:19:45;;;;;;;9.50;5.95;;;;;;;13.90;66.26;101865.72;4872690;28;126000;-84
2024/01/26 06:22:13;;;;;;;10.27;6.15;;;;;;;13.89;66.33;101853.38;4836386;28;120030;-83
2024/01/26 06:24:40;;;;;;;10.27;6.57;;;;;;;13.87;66.34;101847.25;4837840;28;121053;-83
2024/01/26 06:27:07;;;;;;;9.63;5.97;;;;;;;13.87;66.31;101849.91;4852598;28;123299;-83
2024/01/26 06:29:39;;;;;;;11.20;6.22;;;;;;;13.88;66.18;101864.94;4868925;28;123924;-83
2024/01/26 06:32:07;;;;;;;12.13;6.88;;;;;;;13.85;66.47;101862.44;4853892;28;118589;-83
2024/01/26 06:34:39;;;;;;;8.90;6.55;;;;;;;13.83;66.44;101855.34;4854046;28;119193;-84
2024/01/26 06:37:08;;;;;;;9.23;6.60;;;;;;;13.82;66.65;101852.75;4837788;28;123010;-84
2024/01/26 06:39:35;;;;;;;9.00;6.47;;;;;;;13.81;66.50;101851.88;4869329;28;124160;-83
2024/01/26 06:42:03;;;;;;;10.80;6.63;;;;;;;13.80;66.50;101839.50;4870578;28;120018;-83
2024/01/26 06:44:33;;;;;;;9.15;6.72;;;;;;;13.78;66.79;101840.50;4852854;28;117784;-84
2024/01/26 06:47:00;;;;;;;8.63;6.60;;;;;;;13.77;66.64;101844.97;4845574;28;124725;-83
2024/01/26 06:49:27;;;;;;;9.90;6.80;;;;;;;13.77;66.83;101829.00;4852635;29;124278;-84
2024/01/26 06:51:55;;;;;;;9.90;7.35;;;;;;;13.75;66.71;101841.50;4853181;28;118014;-83
2024/01/26 06:54:22;;;;;;;9.38;7.07;;;;;;;13.75;67.01;101841.50;4856581;28;117984;-83
2024/01/26 06:56:49;;;;;;;11.95;7.22;;;;;;;13.76;67.09;101856.53;4854701;28;123571;-83
2024/01/26 06:59:17;;;;;;;10.80;6.45;;;;;;;13.76;66.84;101837.91;4856751;28;123240;-84
2024/01/26 07:01:44;;;;;;;10.63;7.05;;;;;;;13.75;66.86;101836.19;4858294;28;118539;-85
2024/01/26 07:04:13;;;;;;;12.52;6.65;;;;;;;13.75;66.91;101838.84;4843794;28;118795;-85
2024/01/26 07:06:41;;;;;;;12.38;7.15;;;;;;;13.75;67.06;101824.66;4856596;28;124374;-84
2024/01/26 07:09:08;;;;;;;9.43;7.00;;;;;;;13.74;66.88;101817.59;4871151;28;123903;-84
2024/01/26 07:11:38;;;;;;;9.52;7.13;;;;;;;13.75;67.22;101820.22;4869226;28;119355;-85
2024/01/26 07:14:05;;;;;;;12.02;6.78;;;;;;;13.74;67.15;101823.78;4842247;28;119001;-84
2024/01/26 07:16:33;;;;;;;9.43;6.50;;;;;;;13.75;67.23;101829.97;4836541;28;124210;-85
2024/01/26 07:19:00;;;;;;;9.70;6.57;;;;;;;13.74;67.21;101818.47;4870142;28;123757;-85
2024/01/26 07:21:27;;;;;;;9.00;6.30;;;;;;;13.77;67.22;101821.00;4856437;28;118307;-84
2024/01/26 07:23:55;;;;;;;9.18;6.07;;;;;;;13.77;67.11;101807.69;4855456;28;120062;-84
2024/01/26 07:26:22;;;;;;;8.98;5.63;;;;;;;13.77;67.42;101797.03;4873404;28;124108;-85
2024/01/26 07:28:50;;;;;;;8.80;5.30;;;;;;;13.78;67.26;101801.41;4853911;28;122618;-85
2024/01/26 07:31:17;;;;;;;7.78;5.15;;;;;;;13.80;67.34;101791.56;4858016;28;118511;-85
2024/01/26 07:33:47;;;;;;;7.68;5.13;;;;;;;13.82;67.30;101789.72;4852251;28;118440;-85
2024/01/26 07:36:15;;;;;;;7.97;5.75;;;;;;;13.85;67.28;101782.53;4850508;28;123197;-85
2024/01/26 07:38:42;;;;;;;7.85;5.25;;;;;;;13.86;67.28;101789.56;4848625;28;123619;-85
2024/01/26 07:41:09;;;;;;;8.23;5.65;;;;;;;13.89;67.39;101786.78;4867810;28;119823;-85
2024/01/26 07:43:37;;;;;;;10.60;5.45;;;;;;;13.90;67.19;101775.19;4858372;28;118517;-84
2024/01/26 07:46:04;;;;;;;7.50;5.05;;;;;;;13.92;67.32;101783.97;4836481;28;123288;-85
2024/01/26 07:48:31;;;;;;;7.75;5.43;;;;;;;13.93;67.43;101780.41;4851619;28;123464;-85
2024/01/26 07:50:58;;;;;;;6.13;4.88;;;;;;;13.94;67.40;101793.66;4838717;28;118594;-84
2024/01/26 07:53:26;;;;;;;7.47;5.05;;;;;;;13.96;67.34;101796.25;4853593;28;118953;-84
2024/01/26 07:55:53;;;;;;;6.63;5.07;;;;;;;13.98;67.44;101805.03;4837802;28;123845;-85
2024/01/26 07:58:21;;;;;;;8.18;4.65;;;;;;;14.00;67.58;101803.16;4850919;28;122305;-84
2024/01/26 08:00:48;;;;;;;5.88;4.40;;;;;;;14.02;67.56;101817.28;4872031;28;119937;-85
2024/01/26 08:03:15;;;;;;;6.13;4.47;;;;;;;14.05;67.54;101822.44;4850179;28;119848;-83
2024/01/26 08:05:43;;;;;;;7.15;4.55;;;;;;;14.08;67.80;101830.31;4835098;28;123408;-85
2024/01/26 08:08:10;;;;;;;11.98;5.43;;;;;;;14.11;67.54;101831.97;4867540;28;121894;-85
2024/01/26 08:10:37;;;;;;;6.07;4.47;;;;;;;14.13;67.62;101841.66;4860656;28;118384;-85
2024/01/26 08:13:04;;;;;;;9.60;4.55;;;;;;;14.16;67.69;101852.16;4853697;28;118330;-83
2024/01/26 08:15:32;;;;;;;5.90;4.47;;;;;;;14.19;67.80;101852.03;4864978;28;123683;-85
2024/01/26 08:17:59;;;;;;;5.97;4.60;;;;;;;14.21;67.79;101839.50;4866339;28;124239;-84
2024/01/26 08:20:27;;;;;;;7.97;4.40;;;;;;;14.24;67.69;101848.28;4850737;28;119001;-84
2024/01/26 08:22:54;;;;;;;10.23;4.55;;;;;;;14.28;67.59;101860.53;4854482;28;118218;-84
2024/01/26 08:25:21;;;;;;;5.20;3.40;;;;;;;14.30;67.70;101842.72;4835758;28;123600;-85
2024/01/26 08:27:49;;;;;;;6.07;3.45;;;;;;;14.31;67.62;101836.44;4872888;28;122281;-85
2024/01/26 08:30:16;;;;;;;5.07;3.78;;;;;;;14.34;67.50;101841.63;4871815;28;120426;-85
2024/01/26 08:32:45;;;;;;;5.93;3.58;;;;;;;14.37;67.52;101845.03;4854135;28;118559;-84
2024/01/26 08:35:13;;;;;;;4.68;3.15;;;;;;;14.40;67.76;101838.69;4854748;28;123422;-85
2024/01/26 08:37:40;;;;;;;4.72;3.50;;;;;;;14.43;67.55;101841.22;4853187;28;124048;-84
2024/01/26 08:40:09;;;;;;;6.07;3.35;;;;;;;14.45;67.54;101842.00;4840852;28;118308;-85
2024/01/26 08:42:36;;;;;;;7.22;3.83;;;;;;;14.47;67.46;101834.81;4871557;28;118761;-85
2024/01/26 08:45:04;;;;;;;6.53;3.70;;;;;;;14.48;67.68;101841.84;4850541;28;123672;-85
2024/01/26 08:47:31;;;;;;;5.68;3.45;;;;;;;14.51;67.53;101852.38;4852841;28;123574;-84
2024/01/26 08:49:59;;;;;;;6.53;3.55;;;;;;;14.53;67.45;101844.31;4853666;28;118996;-85
2024/01/26 08:52:27;;;;;;;8.60;4.18;;;;;;;14.53;67.42;101834.53;4878573;28;120917;-85
2024/01/26 08:54:54;;;;;;;6.72;3.40;;;;;;;14.55;67.58;101837.97;4854715;28;123940;-85
2024/01/26 08:57:21;;;;;;;5.80;3.47;;;;;;;14.58;67.55;101826.38;4878633;28;124250;-85
2024/01/26 08:59:49;;;;;;;4.80;3.25;;;;;;;14.60;67.24;101835.16;4855716;28;119289;-85
2024/01/26 09:02:23;;;;;;;5.43;3.17;;;;;;;14.62;67.61;101827.94;4873172;28;119012;-85
2024/01/26 09:08:42;;;;;;;6.90;3.15;;;;;;;14.67;67.54;101830.38;4876309;28;122476;-84
2024/01/26 09:11:09;;;;;;;6.05;3.38;;;;;;;14.67;67.50;101835.72;4862135;28;119981;-84
2024/01/26 09:13:36;;;;;;;6.15;3.17;;;;;;;14.67;67.42;101830.38;4867169;28;118395;-83
2024/01/26 09:16:19;;;;;;;6.07;3.28;;;;;;;14.69;67.50;101828.50;4876126;28;124881;-85
2024/01/26 09:19:36;;;;;;;4.60;3.25;;;;;;;14.71;67.52;101842.63;4871775;28;125023;-83
2024/01/26 09:22:03;;;;;;;4.57;3.40;;;;;;;14.72;67.32;101863.03;4887499;28;119304;-84
2024/01/26 09:24:30;;;;;;;4.72;3.20;;;;;;;14.72;67.52;101860.38;4889437;28;117008;-84
2024/01/26 09:27:02;;;;;;;5.45;3.33;;;;;;;14.72;67.35;101887.03;4895597;28;125514;-84
2024/01/26 09:29:32;;;;;;;4.30;2.65;;;;;;;14.71;67.49;101887.97;4875181;28;124369;-83
2024/01/26 09:32:00;;;;;;;5.30;1.67;;;;;;;14.70;67.34;101911.09;4872220;28;119023;-85
2024/01/26 09:34:35;;;;;;;3.22;1.58;;;;;;;14.66;67.36;101898.00;4843185;28;118986;-84
2024/01/26 09:37:04;;;;;;;4.18;1.77;;;;;;;14.64;67.21;101921.19;4851080;28;123894;-85
2024/01/26 09:39:32;;;;;;;3.13;1.42;;;;;;;14.63;67.12;101914.13;4866595;28;124063;-84
2024/01/26 09:41:59;;;;;;;3.97;1.17;;;;;;;14.62;67.07;101928.38;4853385;28;120058;-84
2024/01/26 09:44:50;;;;;;;3.25;0.98;;;;;;;14.58;67.05;101925.00;4850030;28;118487;-84
2024/01/26 09:47:25;;;;;;;3.03;1.10;;;;;;;14.57;67.10;101942.78;4875022;28;123593;-84
2024/01/26 09:50:03;;;;;;;4.88;1.02;;;;;;;14.54;66.85;101952.69;4849012;28;123244;-84
2024/01/26 09:52:37;;;;;;;6.50;1.63;;;;;;;14.50;66.83;101941.28;4854542;28;119299;-84
2024/01/26 09:55:10;;;;;;;3.72;1.20;;;;;;;14.51;66.77;101956.34;4868009;28;118787;-84
2024/01/26 09:57:54;;;;;;;3.83;1.00;;;;;;;14.47;66.76;101977.91;4850274;28;124012;-84
2024/01/26 10:00:21;;;;;;;3.10;1.20;;;;;;;14.41;66.48;101990.53;4851849;28;123746;-84
2024/01/26 10:03:13;;;;;;;4.50;1.00;;;;;;;14.36;66.41;101997.00;4846944;28;119670;-85
2024/01/26 10:05:48;;;;;;;3.05;1.00;;;;;;;14.30;66.22;102014.13;4834270;28;118539;-84
2024/01/26 10:08:16;;;;;;;2.38;0.93;;;;;;;14.24;66.16;102018.81;4867013;28;123130;-84
2024/01/26 10:10:43;;;;;;;2.38;0.90;;;;;;;14.17;66.22;102029.75;4845371;28;122837;-84
2024/01/26 10:13:11;;;;;;;4.03;0.70;;;;;;;14.11;65.93;102045.09;4863172;28;119514;-83
2024/01/26 10:15:38;;;;;;;3.83;0.80;;;;;;;14.06;66.03;102058.63;4825996;28;120128;-83
2024/01/26 10:18:06;;;;;;;4.65;0.90;;;;;;;14.01;65.91;102071.25;4848819;28;124480;-85
2024/01/26 10:20:34;;;;;;;8.55;1.25;;;;;;;13.97;65.78;102074.97;4830222;28;123822;-84
2024/01/26 10:23:02;;;;;;;4.50;0.85;;;;;;;13.93;65.66;102094.66;4839894;28;117885;-84
2024/01/26 10:25:29;;;;;;;4.07;0.90;;;;;;;13.87;65.61;102079.78;4854189;28;118659;-85
2024/01/26 10:27:56;;;;;;;4.80;1.10;;;;;;;13.83;65.32;102089.69;4843437;28;123523;-83
2024/01/26 10:30:26;;;;;;;5.00;0.80;;;;;;;13.81;65.33;102085.38;4830381;29;122761;-83
2024/01/26 10:32:54;;;;;;;4.07;0.90;;;;;;;13.76;65.51;102093.50;4851868;29;120608;-85
2024/01/26 10:35:22;;;;;;;7.10;1.15;;;;;;;13.73;65.17;102108.72;4828038;29;120216;-84
2024/01/26 10:37:52;;;;;;;4.63;1.02;;;;;;;13.70;65.12;102115.06;4836667;29;123832;-84
2024/01/26 10:40:20;;;;;;;4.05;0.93;;;;;;;13.68;65.04;102127.56;4836361;29;123085;-85
2024/01/26 10:42:49;;;;;;;5.75;0.95;;;;;;;13.63;64.87;102129.50;4846293;29;118515;-84
2024/01/26 10:45:17;;;;;;;10.65;1.20;;;;;;;13.62;64.83;102143.78;4837632;29;118459;-84
2024/01/26 10:47:46;;;;;;;5.22;0.90;;;;;;;13.60;64.86;102145.63;4820525;29;124028;-84
2024/01/26 10:50:13;;;;;;;4.00;1.17;;;;;;;13.61;64.53;102147.34;4849193;28;123096;-84
2024/01/26 10:52:42;;;;;;;5.60;1.25;;;;;;;13.58;64.36;102168.75;4845985;29;119081;-84
2024/01/26 10:55:13;;;;;;;7.95;1.30;;;;;;;13.55;64.06;102168.88;4840286;29;119853;-84
2024/01/26 10:57:40;;;;;;;8.77;1.13;;;;;;;13.51;63.88;102188.53;4834592;29;123682;-80
2024/01/26 11:00:09;;;;;;;5.57;0.95;;;;;;;13.46;63.40;102185.16;4837183;29;124722;-79
2024/01/26 11:02:37;;;;;;;4.95;0.80;;;;;;;13.40;63.37;102181.78;4854320;29;119299;-77
2024/01/26 11:05:09;;;;;;;3.38;0.80;;;;;;;13.38;63.02;102204.94;4820472;29;118367;-80
2024/01/26 11:07:38;;;;;;;6.18;1.10;;;;;;;13.36;63.00;102221.88;4836569;28;123388;-82
2024/01/26 11:10:10;;;;;;;2.90;0.70;;;;;;;13.33;62.91;102217.50;4851551;29;123644;-82
2024/01/26 11:12:38;;;;;;;4.68;0.90;;;;;;;13.31;62.43;102231.81;4830323;29;118859;-82
2024/01/26 11:15:06;;;;;;;4.95;1.10;;;;;;;13.28;62.13;102250.50;4830553;29;118649;-80
2024/01/26 11:17:45;;;;;;;6.13;0.85;;;;;;;13.20;61.63;102253.41;4851404;29;123251;-81
2024/01/26 11:20:19;;;;;;;3.13;0.65;;;;;;;13.12;61.29;102261.66;4856005;29;124461;-80
2024/01/26 11:22:58;;;;;;;6.43;1.08;;;;;;;13.02;60.80;102271.72;4838002;29;119286;-80